< < Back
Terminal Aerodrome Forecast


Current Version              Previous Versions:   1  2  3  4  5  6  7  8  9  

Terminal Aerodrome Forecast

472
FTUS42 KTAE 032320
TAFVLD
TAF
KVLD 032320Z 0400/0424 20004KT P6SM TS SCT040CB BKN250
      TEMPO 0400/0404 VRB10G20KT 3SM TSRA BKN015CB
     FM040400 24003KT P6SM BKN025
     FM041500 34008KT P6SM SCT040=

Latest METAR

421
SAUS70 KWBC 041900 RRF
MTRVLD
METAR KVLD 041853Z VRB06KT 10SM FEW050 25/12 A2972 RMK AO2 SLP071
T02500122


USA.gov is the U.S. government's official web portal to all federal, state and local government web resources and services.